Moneta, Wyoming
Current Conditions -  °F | °C
As of 9:53 AM on Friday 24 Oct 2014 (Local Time) from KCPR Reporting Station
Clear Clear  
Wind Chill: 61°   Ceiling: Unl
Heat Index: 61°   Visibility: 10mi
Dew Point: 30°   Wind: 28mph
Humidity: 31%   Direction: 220°SW
Pressure: 30.12"   Gusts: 33mph
Location:  42.8668°N, 106.312°W
Report Text: KCPR 241553Z 22024G29KT 10SM CLR 16/M01 A3012 RMK AO2 PK WND 22029/1552 SLP158 T01611011
Loading
Personal Weather Stations






























Interactive Weather Map
Tropical Storm Tracking
New forecast layout! Learn more

10-Day Weather Forecast

Advertisements
Track Severe Weather on mobile